Time;durP1;ratioP1;P1;durP2;ratioP2;P2;SDS_P1;SDS_P2;PMS_P1;PMS_P2;Temp;Humidity;BMP_temperature;BMP_pressure;BME280_temperature;BME280_humidity;BME280_pressure;Samples;Min_cycle;Max_cycle;Signal;HPM_P1;HPM_P2
2022/09/18 07:04:57;;;;;;;8.67;8.37;;;;;;;9.37;81.03;92475.78;5101147;27;20322;-73
2022/09/18 07:07:22;;;;;;;9.40;9.07;;;;;;;9.42;80.18;92473.16;5066491;28;20185;-73
2022/09/18 07:09:49;;;;;;;9.40;9.10;;;;;;;9.72;80.28;92479.91;5065064;28;20241;-75
2022/09/18 07:12:14;;;;;;;9.87;9.47;;;;;;;9.50;80.56;92458.75;5064597;28;20197;-71
2022/09/18 07:14:40;;;;;;;8.93;8.63;;;;;;;9.68;79.96;92481.53;5073899;28;20224;-73
2022/09/18 07:17:09;;;;;;;9.70;9.30;;;;;;;9.85;77.94;92491.50;5081688;28;20192;-71
2022/09/18 07:19:35;;;;;;;9.10;8.73;;;;;;;9.60;79.31;92487.31;5085487;28;20216;-72
2022/09/18 07:22:00;;;;;;;9.73;9.33;;;;;;;9.82;80.02;92489.47;5088129;28;20180;-72
2022/09/18 07:24:26;;;;;;;8.93;8.63;;;;;;;9.89;79.90;92492.50;5077326;28;20213;-74
2022/09/18 07:26:51;;;;;;;8.47;8.07;;;;;;;10.11;80.29;92490.22;5067553;28;20178;-74
2022/09/18 07:29:16;;;;;;;10.00;9.60;;;;;;;10.08;79.36;92490.75;5071230;28;20299;-73
2022/09/18 07:31:41;;;;;;;10.00;9.57;;;;;;;10.16;78.93;92483.13;5086252;28;20181;-75
2022/09/18 07:34:08;;;;;;;9.47;9.10;;;;;;;10.47;77.77;92476.47;5082110;28;20293;-75
2022/09/18 07:36:33;;;;;;;8.93;8.63;;;;;;;10.68;76.15;92511.69;5085825;28;20691;-75
2022/09/18 07:38:59;;;;;;;9.17;8.87;;;;;;;10.43;73.84;92495.59;5070059;28;20233;-74
2022/09/18 07:41:24;;;;;;;8.63;8.33;;;;;;;10.67;74.84;92499.72;5067713;28;20182;-74
2022/09/18 07:43:50;;;;;;;9.07;8.77;;;;;;;10.53;73.57;92498.84;5064060;28;20225;-73
2022/09/18 07:46:15;;;;;;;8.93;8.63;;;;;;;10.57;72.86;92505.03;5065193;28;20174;-74
2022/09/18 07:48:41;;;;;;;9.03;8.73;;;;;;;10.69;71.65;92462.88;5065768;28;20220;-74
2022/09/18 07:51:06;;;;;;;8.90;8.60;;;;;;;10.97;70.82;92477.63;5084629;28;20193;-72
2022/09/18 07:53:32;;;;;;;8.50;8.20;;;;;;;11.34;71.30;92488.81;5082324;28;20242;-75
2022/09/18 07:55:57;;;;;;;8.37;8.07;;;;;;;11.79;69.37;92510.84;5082127;28;20225;-74
2022/09/18 07:58:23;;;;;;;8.40;8.10;;;;;;;11.68;69.13;92519.13;5116277;28;20194;-73
2022/09/18 08:00:49;;;;;;;8.53;8.23;;;;;;;11.35;69.91;92511.25;5082966;28;20225;-73
2022/09/18 08:03:17;;;;;;;8.07;7.77;;;;;;;11.07;70.58;92517.44;5084139;28;20232;-73
2022/09/18 08:05:43;;;;;;;9.67;9.27;;;;;;;10.80;70.33;92501.59;5081116;28;20216;-74
2022/09/18 08:08:11;;;;;;;9.40;9.00;;;;;;;10.79;71.33;92518.34;5082404;28;20214;-73
2022/09/18 08:10:38;;;;;;;8.97;8.67;;;;;;;10.88;70.73;92506.19;5076285;28;20240;-73
2022/09/18 08:13:05;;;;;;;9.00;8.67;;;;;;;10.98;71.52;92526.19;5079372;28;20228;-73
2022/09/18 08:15:31;;;;;;;8.80;8.50;;;;;;;11.38;70.47;92520.34;5072350;28;20221;-74
2022/09/18 08:17:57;;;;;;;9.63;9.27;;;;;;;11.51;68.23;92524.88;5068498;28;20170;-73
2022/09/18 08:20:22;;;;;;;9.13;8.83;;;;;;;11.33;69.67;92523.81;5068534;28;20608;-73
2022/09/18 08:22:49;;;;;;;9.43;9.03;;;;;;;11.77;68.91;92527.88;5070799;28;20185;-72
2022/09/18 08:25:15;;;;;;;9.37;8.97;;;;;;;11.43;68.78;92522.13;5066803;28;20458;-72
2022/09/18 08:27:41;;;;;;;8.73;8.43;;;;;;;11.94;68.08;92523.66;5101163;28;20193;-73
2022/09/18 08:30:08;;;;;;;9.37;9.07;;;;;;;11.86;66.98;92515.69;5070033;28;20263;-72
2022/09/18 08:32:34;;;;;;;8.90;8.60;;;;;;;11.75;67.44;92519.53;5100859;28;20189;-73
2022/09/18 08:35:00;;;;;;;8.40;8.10;;;;;;;11.84;68.42;92528.28;5068699;28;20406;-72
2022/09/18 08:37:27;;;;;;;7.80;7.50;;;;;;;11.85;67.52;92493.19;5070263;28;20191;-73
2022/09/18 08:39:52;;;;;;;8.90;8.60;;;;;;;11.73;67.47;92493.69;5064861;28;20224;-74
2022/09/18 08:42:32;;;;;;;9.63;9.23;;;;;;;11.77;69.06;92505.09;5067426;28;20244;-74
2022/09/18 08:45:27;;;;;;;8.23;7.93;;;;;;;11.83;67.07;92511.03;5066810;28;20221;-73
2022/09/18 08:47:58;;;;;;;8.37;8.07;;;;;;;12.12;67.89;92519.41;5062498;28;20205;-74
2022/09/18 08:50:29;;;;;;;7.90;7.63;;;;;;;11.93;67.46;92498.56;5070418;28;20221;-74
2022/09/18 08:53:21;;;;;;;9.80;9.30;;;;;;;12.33;67.77;92507.47;5071202;28;20202;-74
2022/09/18 08:55:48;;;;;;;9.03;8.63;;;;;;;12.22;67.00;92508.75;5065488;28;20229;-73
2022/09/18 08:58:19;;;;;;;9.60;9.27;;;;;;;12.07;67.13;92501.19;5069920;28;20208;-73
2022/09/18 09:01:08;;;;;;;9.47;9.07;;;;;;;12.09;65.46;92510.31;5069309;28;20223;-73
2022/09/18 09:04:03;;;;;;;9.40;9.10;;;;;;;11.81;62.97;92500.09;5068953;28;20233;-74
2022/09/18 09:06:53;;;;;;;10.07;9.47;;;;;;;12.09;63.64;92541.72;5070792;28;20240;-73
2022/09/18 09:09:34;;;;;;;9.03;8.73;;;;;;;12.28;63.03;92536.41;5070407;28;20228;-73
2022/09/18 09:12:27;;;;;;;8.77;8.47;;;;;;;12.45;62.73;92536.59;5056890;28;20174;-73
2022/09/18 09:15:08;;;;;;;9.60;9.20;;;;;;;12.48;62.76;92539.38;5064775;28;20313;-73
2022/09/18 09:17:54;;;;;;;9.53;9.20;;;;;;;13.09;63.81;92559.16;5064908;28;20264;-75
2022/09/18 09:20:23;;;;;;;9.50;9.10;;;;;;;12.31;65.52;92533.19;5070104;28;20980;-75
2022/09/18 09:23:02;;;;;;;8.37;8.07;;;;;;;12.97;66.26;92546.53;5070224;28;20181;-75
2022/09/18 09:25:40;;;;;;;9.47;9.07;;;;;;;11.94;67.76;92569.97;5069863;28;20236;-74
2022/09/18 09:28:11;;;;;;;9.03;8.63;;;;;;;11.58;69.28;92550.66;5066984;28;20189;-74
2022/09/18 09:30:38;;;;;;;8.77;8.47;;;;;;;11.46;71.45;92560.75;5069586;28;20221;-73
2022/09/18 09:33:18;;;;;;;8.37;8.07;;;;;;;11.58;70.63;92561.13;5068844;28;20190;-74
2022/09/18 09:35:47;;;;;;;9.63;9.23;;;;;;;11.76;69.09;92574.19;5063219;28;20219;-74
2022/09/18 09:38:31;;;;;;;9.20;8.70;;;;;;;12.02;68.09;92593.63;5090969;28;20906;-75
2022/09/18 09:41:06;;;;;;;8.90;8.60;;;;;;;12.37;68.58;92600.09;5066279;28;20945;-72
2022/09/18 09:43:46;;;;;;;9.50;9.10;;;;;;;12.41;67.83;92616.78;5069451;28;20210;-75
2022/09/18 09:46:38;;;;;;;8.77;8.47;;;;;;;12.39;66.52;92627.53;5101095;28;20210;-75
2022/09/18 09:49:11;;;;;;;9.57;9.17;;;;;;;12.49;67.07;92626.59;5066226;28;20229;-74
2022/09/18 09:51:45;;;;;;;8.80;8.50;;;;;;;12.71;67.03;92630.09;5066779;28;20181;-74
2022/09/18 09:54:11;;;;;;;9.73;9.23;;;;;;;12.10;65.73;92615.75;5065009;28;20266;-74
2022/09/18 09:56:52;;;;;;;9.60;9.20;;;;;;;12.16;65.72;92620.59;5066963;28;20187;-75
2022/09/18 09:59:53;;;;;;;8.83;8.43;;;;;;;12.03;62.90;92610.13;5063507;28;20293;-75
2022/09/18 10:02:18;;;;;;;9.77;9.27;;;;;;;11.96;62.97;92618.31;5100726;28;20180;-74
2022/09/18 10:04:55;;;;;;;9.37;8.93;;;;;;;12.68;62.91;92614.19;5058548;28;20234;-74
2022/09/18 10:07:25;;;;;;;10.43;9.77;;;;;;;12.34;61.30;92621.63;5068884;28;20190;-74
2022/09/18 10:10:05;;;;;;;9.73;9.33;;;;;;;12.40;61.04;92618.63;5068970;28;20241;-74
2022/09/18 10:12:56;;;;;;;10.00;9.43;;;;;;;12.74;63.54;92623.50;5068744;28;20215;-74
2022/09/18 10:15:44;;;;;;;10.10;9.47;;;;;;;12.92;62.03;92628.66;5063780;28;20236;-74
2022/09/18 10:18:16;;;;;;;10.43;9.93;;;;;;;12.97;59.91;92635.63;5068732;28;20193;-74
2022/09/18 10:20:44;;;;;;;8.57;8.17;;;;;;;12.42;60.52;92634.06;5062337;28;20226;-74
2022/09/18 10:23:35;;;;;;;9.50;9.10;;;;;;;12.19;61.19;92600.94;5051305;28;20220;-74
2022/09/18 10:26:01;;;;;;;10.80;10.23;;;;;;;12.34;61.31;92639.94;5060911;28;20209;-74
2022/09/18 10:28:28;;;;;;;10.37;9.87;;;;;;;12.59;61.54;92624.56;5078664;28;20193;-74
2022/09/18 10:31:05;;;;;;;9.60;9.17;;;;;;;12.81;61.04;92637.75;5040964;28;20286;-75
2022/09/18 10:33:38;;;;;;;10.07;9.67;;;;;;;13.25;61.08;92652.13;5049540;28;20262;-74
2022/09/18 10:36:18;;;;;;;9.87;9.47;;;;;;;13.06;61.26;92654.88;5067877;28;20218;-74
2022/09/18 10:38:44;;;;;;;9.70;9.20;;;;;;;13.25;60.03;92650.31;5067327;28;20219;-75
2022/09/18 10:41:10;;;;;;;9.97;9.57;;;;;;;12.95;61.35;92650.84;5080659;28;20189;-73
2022/09/18 10:43:50;;;;;;;11.40;10.80;;;;;;;13.15;61.74;92642.66;5075521;28;20264;-72
2022/09/18 10:46:23;;;;;;;10.43;9.83;;;;;;;13.59;61.27;92650.63;5064573;28;20184;-73
2022/09/18 10:48:48;;;;;;;11.60;10.90;;;;;;;13.00;60.00;92653.41;5073521;28;20185;-72
2022/09/18 10:51:20;;;;;;;11.70;10.90;;;;;;;12.95;62.33;92654.25;5068715;28;20195;-73
2022/09/18 10:54:00;;;;;;;11.27;10.73;;;;;;;13.14;63.38;92656.81;5067128;28;20219;-72
2022/09/18 10:56:26;;;;;;;10.93;10.23;;;;;;;12.83;63.22;92650.56;5068812;28;20189;-73
2022/09/18 10:58:51;;;;;;;11.67;10.77;;;;;;;13.07;62.49;92648.59;5066772;28;20252;-73
2022/09/18 11:01:18;;;;;;;11.67;11.07;;;;;;;13.22;61.97;92674.47;5068847;28;20202;-73
2022/09/18 11:03:58;;;;;;;12.27;11.47;;;;;;;12.96;61.22;92663.66;5059251;28;20221;-72
2022/09/18 11:06:26;;;;;;;12.50;11.70;;;;;;;12.56;61.97;92661.03;5063564;28;20249;-72
2022/09/18 11:08:55;;;;;;;11.37;10.77;;;;;;;12.47;63.10;92662.75;5068494;28;20190;-73
2022/09/18 11:11:36;;;;;;;11.70;11.00;;;;;;;12.08;64.48;92659.72;5068716;28;20179;-73
2022/09/18 11:14:04;;;;;;;12.13;11.43;;;;;;;12.53;64.33;92662.38;5067752;28;20917;-72
2022/09/18 11:16:46;;;;;;;10.63;9.80;;;;;;;12.41;62.63;92653.44;5068885;28;20220;-75
2022/09/18 11:19:18;;;;;;;10.63;10.10;;;;;;;11.87;65.64;92659.28;5059015;28;20232;-75
2022/09/18 11:21:47;;;;;;;10.60;9.90;;;;;;;11.98;61.34;92631.91;5066917;28;20189;-72
2022/09/18 11:24:20;;;;;;;12.10;11.20;;;;;;;12.34;61.44;92664.25;5065302;28;20344;-74
2022/09/18 11:26:57;;;;;;;11.73;11.03;;;;;;;12.57;61.67;92663.38;5068110;28;20293;-72
2022/09/18 11:29:38;;;;;;;11.30;10.63;;;;;;;12.48;62.50;92649.38;5068003;28;20282;-72
2022/09/18 11:32:25;;;;;;;11.87;11.27;;;;;;;12.63;62.73;92659.59;5066495;28;20183;-71
2022/09/18 11:34:56;;;;;;;11.37;10.77;;;;;;;12.74;62.27;92653.09;5067339;28;20239;-73
2022/09/18 11:37:47;;;;;;;11.77;11.07;;;;;;;12.93;63.05;92663.50;5069552;28;20201;-73
2022/09/18 11:40:17;;;;;;;11.93;11.33;;;;;;;12.80;62.69;92669.50;5068004;28;20217;-76
2022/09/18 11:42:45;;;;;;;11.53;10.93;;;;;;;12.87;61.61;92668.03;5067407;28;20212;-72
2022/09/18 11:45:17;;;;;;;11.23;10.33;;;;;;;12.80;61.70;92680.75;5067910;28;20240;-75
2022/09/18 11:47:50;;;;;;;11.77;10.80;;;;;;;12.79;61.28;92620.78;5069065;28;20199;-75
2022/09/18 11:50:22;;;;;;;12.33;11.47;;;;;;;13.13;61.76;92681.47;5054437;28;20237;-75
2022/09/18 11:52:52;;;;;;;12.93;12.17;;;;;;;13.07;63.92;92682.66;5072870;28;20186;-75
2022/09/18 11:55:26;;;;;;;11.30;10.70;;;;;;;12.75;62.75;92680.84;5070505;28;20217;-74
2022/09/18 11:57:57;;;;;;;10.93;10.33;;;;;;;12.29;64.25;92676.66;5072488;28;20197;-75
2022/09/18 12:00:27;;;;;;;10.80;10.20;;;;;;;12.42;64.08;92670.72;5069919;28;20225;-73
2022/09/18 12:03:05;;;;;;;11.67;10.97;;;;;;;12.43;64.76;92667.00;5071752;28;20248;-73
2022/09/18 12:05:51;;;;;;;11.37;10.77;;;;;;;12.33;64.60;92667.16;5071241;28;20268;-73
2022/09/18 12:08:25;;;;;;;11.77;11.07;;;;;;;12.13;66.01;92667.50;5072771;28;20193;-74
2022/09/18 12:11:28;;;;;;;12.33;11.60;;;;;;;12.49;64.66;92673.72;5079954;28;20910;-74
2022/09/18 12:14:12;;;;;;;11.57;10.83;;;;;;;12.68;64.48;92664.72;5070955;28;20188;-73
2022/09/18 12:16:54;;;;;;;11.23;10.63;;;;;;;12.68;63.78;92659.47;5069689;28;20178;-74
2022/09/18 12:19:29;;;;;;;11.30;10.70;;;;;;;12.82;63.95;92673.38;5070422;28;20213;-73
2022/09/18 12:21:59;;;;;;;10.27;9.77;;;;;;;12.96;63.48;92686.50;5062451;28;20173;-73
2022/09/18 12:24:24;;;;;;;11.03;10.50;;;;;;;12.88;63.06;92676.69;5065950;28;20226;-73
2022/09/18 12:26:53;;;;;;;11.17;10.57;;;;;;;13.12;62.43;92685.16;5102212;28;20185;-73
2022/09/18 12:29:49;;;;;;;10.43;9.93;;;;;;;13.14;61.87;92685.66;5070553;28;20962;-73
2022/09/18 12:32:39;;;;;;;11.20;10.67;;;;;;;13.43;59.72;92691.34;5071352;28;20201;-74
2022/09/18 12:35:37;;;;;;;11.90;11.23;;;;;;;13.42;59.49;92704.75;5063950;28;20236;-73
2022/09/18 12:38:41;;;;;;;11.00;10.47;;;;;;;13.22;60.88;92700.69;5071303;28;20189;-73
2022/09/18 12:41:22;;;;;;;10.40;9.90;;;;;;;13.22;57.68;92707.78;5052324;28;20240;-73
2022/09/18 12:44:24;;;;;;;10.03;9.53;;;;;;;12.77;59.35;92706.75;5058342;28;20217;-73
2022/09/18 12:47:01;;;;;;;10.07;9.53;;;;;;;12.65;58.68;92693.34;5064413;28;20955;-74
2022/09/18 12:50:11;;;;;;;9.13;8.83;;;;;;;12.92;60.13;92702.00;5078791;28;20220;-73
2022/09/18 12:52:46;;;;;;;9.27;8.97;;;;;;;12.78;58.61;92703.06;5009931;28;20199;-74
2022/09/18 12:55:14;;;;;;;10.50;10.00;;;;;;;12.89;59.88;92707.84;5022935;28;20226;-73
2022/09/18 12:58:08;;;;;;;9.37;8.87;;;;;;;12.96;57.96;92712.69;5060693;28;20196;-73
2022/09/18 13:00:37;;;;;;;9.73;9.33;;;;;;;12.60;58.14;92701.28;5042663;28;20284;-73
2022/09/18 13:03:11;;;;;;;9.50;9.20;;;;;;;12.42;59.49;92712.59;5082283;28;20196;-72
2022/09/18 13:05:42;;;;;;;9.33;8.93;;;;;;;12.50;58.06;92704.06;5081462;28;20221;-73
2022/09/18 13:08:17;;;;;;;9.47;9.07;;;;;;;12.63;57.72;92703.31;5082922;28;20276;-74
2022/09/18 13:10:45;;;;;;;9.23;8.93;;;;;;;12.98;57.14;92706.09;5078301;28;20220;-73
2022/09/18 13:13:10;;;;;;;9.33;8.93;;;;;;;13.15;53.94;92705.56;5079383;28;20230;-73
2022/09/18 13:15:43;;;;;;;9.93;9.50;;;;;;;13.35;53.82;92704.38;5077836;28;20221;-72
2022/09/18 13:18:17;;;;;;;9.17;8.77;;;;;;;13.74;53.84;92718.50;5086179;28;20707;-73
2022/09/18 13:20:44;;;;;;;9.43;8.83;;;;;;;13.35;51.31;92712.25;5088278;28;20220;-72
2022/09/18 13:23:36;;;;;;;9.90;9.50;;;;;;;13.47;52.50;92702.81;5074760;28;20245;-73
2022/09/18 13:26:05;;;;;;;9.70;9.30;;;;;;;13.37;55.04;92708.25;5074484;28;20209;-73
2022/09/18 13:28:32;;;;;;;9.83;9.37;;;;;;;13.51;53.79;92697.78;5082889;28;20209;-73
2022/09/18 13:31:26;;;;;;;9.70;9.30;;;;;;;13.45;54.69;92704.97;5074521;28;20297;-73
2022/09/18 13:34:15;;;;;;;9.70;9.30;;;;;;;13.10;54.16;92703.03;5063997;28;20173;-73
2022/09/18 13:36:43;;;;;;;9.03;8.57;;;;;;;13.27;55.20;92703.22;5071418;28;20177;-73
2022/09/18 13:39:23;;;;;;;9.63;9.23;;;;;;;13.11;54.53;92703.78;5083996;28;20236;-73
2022/09/18 13:41:52;;;;;;;9.57;9.17;;;;;;;12.83;56.00;92709.00;5087209;28;20181;-73
2022/09/18 13:44:20;;;;;;;9.17;8.67;;;;;;;13.05;56.50;92705.75;5070070;28;20221;-73
2022/09/18 13:46:48;;;;;;;9.47;9.13;;;;;;;13.32;56.07;92715.47;5081582;28;20181;-73
2022/09/18 13:49:18;;;;;;;9.83;9.43;;;;;;;13.34;56.01;92718.56;5070290;28;20557;-73
2022/09/18 13:51:44;;;;;;;10.17;9.60;;;;;;;13.43;56.11;92717.56;5070991;28;20188;-73
2022/09/18 13:54:24;;;;;;;9.70;9.30;;;;;;;13.29;56.99;92706.31;5074779;28;20220;-73
2022/09/18 13:57:13;;;;;;;9.27;8.90;;;;;;;13.55;56.03;92731.00;5084423;28;20200;-73
2022/09/18 14:00:27;;;;;;;9.17;8.67;;;;;;;13.33;55.08;92717.00;5080442;28;20315;-73
2022/09/18 14:03:07;;;;;;;9.30;8.80;;;;;;;13.40;54.49;92710.28;5070340;28;20185;-73
2022/09/18 14:05:33;;;;;;;9.43;9.03;;;;;;;13.44;56.83;92716.53;5086846;28;20216;-73
2022/09/18 14:08:10;;;;;;;10.10;9.70;;;;;;;13.37;56.70;92710.88;5088783;28;20195;-73
2022/09/18 14:10:48;;;;;;;8.77;8.37;;;;;;;13.30;55.61;92718.38;5069768;28;20224;-72
2022/09/18 14:13:35;;;;;;;9.10;8.77;;;;;;;13.30;53.75;92720.22;5078591;28;20180;-73
2022/09/18 14:16:22;;;;;;;9.43;9.03;;;;;;;13.31;55.91;92719.91;5058135;28;20218;-74
2022/09/18 14:18:47;;;;;;;9.30;8.90;;;;;;;13.48;56.29;92727.97;5060773;28;20190;-73
2022/09/18 14:21:16;;;;;;;9.17;8.77;;;;;;;13.54;55.14;92726.78;5050233;28;20193;-73
2022/09/18 14:23:47;;;;;;;8.47;8.17;;;;;;;13.39;55.79;92719.25;5049716;28;20517;-73
2022/09/18 14:26:32;;;;;;;8.80;8.50;;;;;;;13.13;55.40;92723.44;5056572;28;20185;-73
2022/09/18 14:29:13;;;;;;;8.63;8.33;;;;;;;13.31;54.83;92727.78;5071309;28;20216;-73
2022/09/18 14:31:45;;;;;;;9.93;9.43;;;;;;;13.47;56.51;92725.66;5070047;28;20173;-73
2022/09/18 14:34:26;;;;;;;8.87;8.53;;;;;;;13.30;54.87;92721.00;5069929;28;20236;-72
2022/09/18 14:36:55;;;;;;;9.63;9.20;;;;;;;13.00;54.79;92724.19;5080156;28;20197;-73
2022/09/18 14:39:31;;;;;;;10.37;9.80;;;;;;;13.13;54.90;92726.03;5084188;28;20211;-73
2022/09/18 14:42:10;;;;;;;9.80;9.40;;;;;;;13.10;54.53;92731.09;5084661;28;20164;-72
2022/09/18 14:44:36;;;;;;;8.43;8.13;;;;;;;12.91;54.46;92710.16;5086990;28;20227;-72
2022/09/18 14:47:05;;;;;;;9.10;8.80;;;;;;;13.02;55.49;92729.91;5074803;28;20184;-73
2022/09/18 14:49:35;;;;;;;9.47;9.07;;;;;;;12.95;54.29;92732.09;5063801;28;20289;-73
2022/09/18 14:52:01;;;;;;;9.17;8.67;;;;;;;12.80;55.66;92714.03;5085784;28;20214;-73
2022/09/18 14:54:28;;;;;;;9.17;8.87;;;;;;;12.74;54.31;92725.66;5076791;28;20251;-73
2022/09/18 14:56:59;;;;;;;9.40;8.93;;;;;;;12.54;54.51;92723.41;5083026;28;20182;-73
2022/09/18 14:59:25;;;;;;;9.70;9.20;;;;;;;12.52;54.70;92710.59;5088439;28;20236;-73
2022/09/18 15:01:51;;;;;;;9.30;9.00;;;;;;;12.52;56.18;92712.41;5074073;28;20177;-73
2022/09/18 15:04:21;;;;;;;9.40;9.00;;;;;;;12.56;55.72;92718.66;5077501;28;20294;-73
2022/09/18 15:06:55;;;;;;;8.73;8.43;;;;;;;12.14;56.30;92726.66;5087240;28;20198;-72
2022/09/18 15:09:39;;;;;;;9.80;9.30;;;;;;;12.22;58.90;92729.38;5078677;28;20221;-72
2022/09/18 15:12:13;;;;;;;8.80;8.47;;;;;;;12.16;59.26;92732.34;5081770;28;20257;-73
2022/09/18 15:14:39;;;;;;;9.57;9.07;;;;;;;12.00;58.89;92737.03;5082041;28;20227;-73
2022/09/18 15:17:05;;;;;;;8.83;8.43;;;;;;;12.08;59.88;92728.56;5089052;28;20252;-72
2022/09/18 15:19:32;;;;;;;11.37;10.77;;;;;;;12.13;60.86;92725.06;5086216;28;20239;-73
2022/09/18 15:21:59;;;;;;;9.90;9.30;;;;;;;11.99;63.93;92730.25;5069302;28;20198;-72
2022/09/18 15:24:26;;;;;;;9.90;9.50;;;;;;;11.76;64.03;92727.69;5068209;28;20217;-73
2022/09/18 15:26:55;;;;;;;11.27;10.77;;;;;;;12.12;65.18;92723.53;5072744;28;20191;-73
2022/09/18 15:29:31;;;;;;;9.83;9.37;;;;;;;12.14;63.81;92727.41;5073852;28;20226;-72
2022/09/18 15:31:58;;;;;;;9.10;8.70;;;;;;;11.93;65.66;92707.06;5092926;28;20187;-71
2022/09/18 15:34:27;;;;;;;9.97;9.43;;;;;;;12.05;66.25;92736.19;5071352;28;20228;-71
2022/09/18 15:36:59;;;;;;;10.10;9.70;;;;;;;11.89;67.64;92732.25;5068413;28;20189;-71
2022/09/18 15:39:37;;;;;;;9.70;9.30;;;;;;;12.20;68.10;92731.50;5075347;28;21038;-71
2022/09/18 15:42:17;;;;;;;9.60;8.90;;;;;;;12.15;69.37;92736.84;5064257;28;20249;-70
2022/09/18 15:44:42;;;;;;;9.70;9.30;;;;;;;11.98;65.40;92743.63;5064994;28;20224;-72
2022/09/18 15:47:31;;;;;;;12.30;11.60;;;;;;;11.92;63.96;92750.75;5091335;28;20205;-72
2022/09/18 15:49:58;;;;;;;9.23;8.80;;;;;;;12.03;63.31;92752.16;5082151;28;20332;-74
2022/09/18 15:52:41;;;;;;;8.80;8.43;;;;;;;11.77;64.31;92744.94;5077274;28;20197;-72
2022/09/18 15:55:15;;;;;;;9.83;9.33;;;;;;;11.70;64.04;92749.75;5060920;28;20240;-72
2022/09/18 15:57:49;;;;;;;9.53;9.07;;;;;;;11.55;65.07;92752.53;5071833;28;20252;-71
2022/09/18 16:00:23;;;;;;;9.50;8.93;;;;;;;11.67;64.11;92752.94;5070759;28;20225;-72
2022/09/18 16:02:56;;;;;;;10.67;10.07;;;;;;;11.45;64.66;92750.81;5072302;28;20207;-72
2022/09/18 16:05:22;;;;;;;10.00;9.53;;;;;;;11.43;65.69;92754.75;5072782;28;20232;-73
2022/09/18 16:07:56;;;;;;;9.67;9.27;;;;;;;11.44;69.36;92758.94;5075349;28;20253;-73
2022/09/18 16:10:34;;;;;;;10.00;9.40;;;;;;;11.27;68.57;92754.94;5086526;28;20215;-72
2022/09/18 16:13:22;;;;;;;10.87;10.27;;;;;;;11.13;69.81;92748.81;5076514;28;20213;-72
2022/09/18 16:16:11;;;;;;;11.20;10.60;;;;;;;10.92;68.24;92737.03;5070616;28;20233;-72
2022/09/18 16:18:54;;;;;;;10.67;10.17;;;;;;;11.00;67.05;92754.69;5077785;28;20191;-72
2022/09/18 16:21:23;;;;;;;9.90;9.30;;;;;;;10.81;66.82;92751.25;5086827;28;20190;-71
2022/09/18 16:23:53;;;;;;;10.67;9.97;;;;;;;10.95;67.30;92753.97;5070539;28;20214;-72
2022/09/18 16:26:29;;;;;;;9.97;9.40;;;;;;;10.90;66.37;92752.22;5069552;28;20185;-71
2022/09/18 16:28:59;;;;;;;10.00;9.60;;;;;;;10.88;67.88;92737.88;5069292;28;20719;-70
2022/09/18 16:31:29;;;;;;;10.30;9.50;;;;;;;10.79;67.97;92763.00;5068823;28;20176;-68
2022/09/18 16:34:18;;;;;;;19.77;13.63;;;;;;;10.90;66.93;92767.09;5067404;28;20225;-70
2022/09/18 16:36:44;;;;;;;22.07;15.37;;;;;;;10.97;67.38;92765.72;5044936;28;20186;-71
2022/09/18 16:39:13;;;;;;;18.33;12.73;;;;;;;10.79;68.97;92770.84;5049862;28;20324;-71
2022/09/18 16:41:38;;;;;;;10.73;10.00;;;;;;;10.73;68.35;92759.69;5067554;28;20264;-71
2022/09/18 16:44:06;;;;;;;11.57;11.00;;;;;;;10.59;69.45;92768.41;5062383;28;20225;-70
2022/09/18 16:46:51;;;;;;;12.47;11.87;;;;;;;10.53;69.09;92782.56;5060768;28;20202;-70
2022/09/18 16:49:24;;;;;;;9.50;9.10;;;;;;;10.59;69.62;92769.22;5063370;28;20930;-72
2022/09/18 16:51:51;;;;;;;9.40;9.00;;;;;;;10.45;71.49;92770.88;5061632;28;20205;-72
2022/09/18 16:54:16;;;;;;;9.60;9.20;;;;;;;10.53;66.47;92785.97;5063422;28;20213;-71
2022/09/18 16:56:52;;;;;;;9.83;9.23;;;;;;;10.49;64.51;92792.75;5062007;28;20229;-70
2022/09/18 16:59:24;;;;;;;9.00;8.70;;;;;;;10.48;63.62;92786.00;5070316;28;20221;-72
2022/09/18 17:01:50;;;;;;;9.53;9.10;;;;;;;10.58;63.73;92788.53;5070935;28;20221;-73
2022/09/18 17:04:15;;;;;;;8.83;8.53;;;;;;;10.22;61.80;92742.88;5075939;28;20239;-72
2022/09/18 17:06:41;;;;;;;10.13;9.43;;;;;;;10.58;63.69;92806.81;5075882;28;20201;-72
2022/09/18 17:09:06;;;;;;;10.10;9.57;;;;;;;10.45;64.57;92797.00;5067608;28;20248;-72
2022/09/18 17:11:33;;;;;;;9.73;9.33;;;;;;;10.34;64.45;92803.31;5051367;28;20182;-71
2022/09/18 17:13:58;;;;;;;9.50;9.10;;;;;;;10.32;64.23;92807.28;5061310;28;20229;-72
2022/09/18 17:16:24;;;;;;;9.13;8.73;;;;;;;10.46;61.54;92816.03;5073023;28;20212;-72
2022/09/18 17:18:49;;;;;;;10.63;10.13;;;;;;;10.47;59.77;92810.56;5076653;28;20197;-73
2022/09/18 17:21:14;;;;;;;9.60;9.23;;;;;;;10.41;61.23;92814.22;5076800;28;20181;-72
2022/09/18 17:23:40;;;;;;;9.70;8.93;;;;;;;10.39;62.22;92826.78;5068137;28;20213;-73
2022/09/18 17:26:10;;;;;;;10.33;9.73;;;;;;;10.40;64.44;92825.72;5069423;28;20193;-73
2022/09/18 17:28:36;;;;;;;8.53;8.23;;;;;;;10.42;64.55;92826.25;5077086;28;20193;-72
2022/09/18 17:31:16;;;;;;;9.70;9.30;;;;;;;10.33;63.46;92811.44;5076109;28;20197;-72
2022/09/18 17:33:43;;;;;;;8.60;8.30;;;;;;;10.37;62.09;92844.53;5072598;28;20974;-72
2022/09/18 17:36:10;;;;;;;9.53;9.07;;;;;;;10.37;63.33;92841.94;5069567;28;20173;-76
2022/09/18 17:38:36;;;;;;;9.03;8.67;;;;;;;10.30;64.95;92843.28;5067535;28;20188;-74
2022/09/18 17:41:04;;;;;;;13.97;13.27;;;;;;;10.25;65.47;92830.25;5046801;28;20205;-74
2022/09/18 17:43:29;;;;;;;12.80;11.80;;;;;;;10.29;64.14;92824.22;5050611;28;20325;-78
2022/09/18 17:45:56;;;;;;;10.10;9.57;;;;;;;10.27;64.07;92852.44;5060134;28;20251;-76
2022/09/18 17:48:23;;;;;;;8.83;8.43;;;;;;;10.20;64.38;92848.56;5063959;28;20181;-72
2022/09/18 17:50:55;;;;;;;9.87;9.47;;;;;;;10.29;64.65;92855.53;5063568;28;20254;-75
2022/09/18 17:53:20;;;;;;;8.03;7.73;;;;;;;10.32;63.04;92856.84;5065036;28;21725;-74
2022/09/18 17:55:49;;;;;;;9.17;8.77;;;;;;;10.37;63.39;92864.63;5068021;28;20229;-75
2022/09/18 17:58:18;;;;;;;9.77;9.27;;;;;;;10.38;60.65;92851.31;5069614;28;20190;-74
2022/09/18 18:00:43;;;;;;;9.43;9.13;;;;;;;10.50;61.06;92877.09;5065072;28;20256;-75
2022/09/18 18:03:09;;;;;;;9.67;9.27;;;;;;;10.44;60.53;92878.97;5066723;28;20232;-77
2022/09/18 18:05:35;;;;;;;8.63;8.33;;;;;;;10.51;59.17;92871.59;5065324;28;20221;-75
2022/09/18 18:08:00;;;;;;;8.93;8.63;;;;;;;10.55;59.75;92872.59;5065215;28;20189;-72
2022/09/18 18:10:26;;;;;;;7.73;7.53;;;;;;;10.53;60.57;92884.38;5065045;28;20225;-74
2022/09/18 18:12:51;;;;;;;9.37;9.00;;;;;;;10.48;60.43;92887.78;5069734;28;20193;-75
2022/09/18 18:15:18;;;;;;;8.20;7.90;;;;;;;10.55;60.33;92890.88;5070235;28;20213;-73
2022/09/18 18:17:48;;;;;;;9.17;8.87;;;;;;;10.62;59.29;92891.38;5071499;28;20181;-73
2022/09/18 18:20:14;;;;;;;8.60;8.30;;;;;;;10.57;59.09;92886.16;5068485;28;20217;-73
2022/09/18 18:22:40;;;;;;;10.17;9.57;;;;;;;10.55;58.73;92892.72;5066011;28;20189;-72
2022/09/18 18:25:07;;;;;;;9.40;9.07;;;;;;;10.52;58.93;92888.81;5065821;28;20239;-75
2022/09/18 18:27:33;;;;;;;8.47;8.17;;;;;;;10.31;60.92;92871.72;5064511;28;20189;-73
2022/09/18 18:29:58;;;;;;;9.63;9.13;;;;;;;10.39;61.17;92892.03;5066675;28;20251;-72
2022/09/18 18:32:23;;;;;;;9.50;9.10;;;;;;;10.37;60.91;92886.28;5063978;28;20201;-72
2022/09/18 18:34:49;;;;;;;9.40;9.00;;;;;;;10.27;59.14;92880.34;5067791;28;20242;-73
2022/09/18 18:37:15;;;;;;;9.13;8.83;;;;;;;10.37;61.88;92896.72;5060949;28;20189;-75
2022/09/18 18:39:41;;;;;;;9.23;8.93;;;;;;;10.33;59.81;92895.72;5065624;28;20221;-74
2022/09/18 18:42:07;;;;;;;9.20;8.90;;;;;;;10.32;58.71;92890.78;5067321;28;20228;-74
2022/09/18 18:44:33;;;;;;;8.93;8.63;;;;;;;10.33;58.82;92885.28;5067966;28;20255;-74
2022/09/18 18:47:00;;;;;;;8.93;8.33;;;;;;;10.21;57.68;92871.75;5060869;28;20280;-74
2022/09/18 18:49:26;;;;;;;10.13;9.63;;;;;;;10.13;60.15;92859.31;5066221;28;20221;-74
2022/09/18 18:51:51;;;;;;;10.47;9.87;;;;;;;10.38;62.08;92889.69;5089704;28;20210;-74
2022/09/18 18:54:20;;;;;;;10.87;10.33;;;;;;;10.32;61.47;92888.94;5063478;28;20232;-74
2022/09/18 18:56:46;;;;;;;10.03;9.63;;;;;;;10.39;58.18;92889.41;5064074;28;20181;-75
2022/09/18 18:59:17;;;;;;;8.90;8.60;;;;;;;10.32;58.32;92894.16;5063583;28;20255;-74